createdAt,value
2023-09-13T00:00:03.329Z,1005.21
2023-09-13T00:00:33.491Z,1005.21
2023-09-13T00:01:05.329Z,1005.32
2023-09-13T00:01:35.933Z,1005.21
2023-09-13T00:01:53.437Z,1005.21
2023-09-13T00:02:26.417Z,1005.21
2023-09-13T00:02:43.324Z,1005.11
2023-09-13T00:03:13.406Z,1005.11
2023-09-13T00:03:35.333Z,1005.11
2023-09-13T00:04:02.200Z,1005.11
2023-09-13T00:04:33.444Z,1005.11
2023-09-13T00:05:05.832Z,1005.11
2023-09-13T00:05:35.214Z,1005.21
2023-09-13T00:05:53.421Z,1005.21
2023-09-13T00:06:26.136Z,1005.21
2023-09-13T00:06:43.134Z,1005.11
2023-09-13T00:07:13.405Z,1005.11
2023-09-13T00:07:35.225Z,1005.11
2023-09-13T00:08:02.026Z,1005.11
2023-09-13T00:08:33.213Z,1005.11
2023-09-13T00:09:05.680Z,1005.11
2023-09-13T00:09:35.210Z,1005.32
2023-09-13T00:09:53.245Z,1005.32
2023-09-13T00:10:26.513Z,1005.32
2023-09-13T00:10:43.273Z,1005.11
2023-09-13T00:11:13.272Z,1005.11
2023-09-13T00:11:35.304Z,1005.11
2023-09-13T00:12:02.075Z,1005.11
2023-09-13T00:12:33.278Z,1005.11
2023-09-13T00:13:05.447Z,1005.11
2023-09-13T00:13:35.300Z,1005.21
2023-09-13T00:13:53.248Z,1005.21
2023-09-13T00:14:26.215Z,1005.21
2023-09-13T00:14:43.192Z,1005.21
2023-09-13T00:15:13.704Z,1005.21
2023-09-13T00:15:35.281Z,1005.32
2023-09-13T00:16:02.500Z,1005.32
2023-09-13T00:16:33.371Z,1005.32
2023-09-13T00:17:05.369Z,1005.21
2023-09-13T00:17:36.199Z,1005.11
2023-09-13T00:17:53.377Z,1005.11
2023-09-13T00:18:26.148Z,1005.11
2023-09-13T00:18:43.166Z,1005.42
2023-09-13T00:19:13.305Z,1005.42
2023-09-13T00:19:35.213Z,1005.11
2023-09-13T00:20:02.375Z,1005.11
2023-09-13T00:20:33.222Z,1005.11
2023-09-13T00:21:05.272Z,1005.21
2023-09-13T00:21:35.219Z,1005.32
2023-09-13T00:21:53.334Z,1005.32
2023-09-13T00:22:26.143Z,1005.32
2023-09-13T00:22:43.069Z,1005.21
2023-09-13T00:23:13.680Z,1005.21
2023-09-13T00:23:35.229Z,1005.11
2023-09-13T00:24:01.943Z,1005.11
2023-09-13T00:24:33.253Z,1005.11
2023-09-13T00:25:05.474Z,1005.32
2023-09-13T00:25:35.319Z,1005.11
2023-09-13T00:25:53.483Z,1005.11
2023-09-13T00:26:26.357Z,1005.11
2023-09-13T00:26:43.160Z,1005.11
2023-09-13T00:27:13.320Z,1005.11
2023-09-13T00:27:35.185Z,1005.21
2023-09-13T00:28:02.233Z,1005.21
2023-09-13T00:28:33.259Z,1005.21
2023-09-13T00:29:05.291Z,1005.42
2023-09-13T00:29:35.447Z,1005.21
2023-09-13T00:29:53.375Z,1005.21
2023-09-13T00:30:26.611Z,1005.21
2023-09-13T00:30:43.382Z,1005.32
2023-09-13T00:31:13.369Z,1005.32
2023-09-13T00:31:35.380Z,1005.42
2023-09-13T00:32:01.420Z,1005.42
2023-09-13T00:32:34.164Z,1005.42
2023-09-13T00:33:05.235Z,1005.42
2023-09-13T00:33:36.142Z,1005.11
2023-09-13T00:33:54.131Z,1005.11
2023-09-13T00:34:25.280Z,1005.11
2023-09-13T00:34:42.393Z,1005.21
2023-09-13T00:35:14.277Z,1005.21
2023-09-13T00:35:35.204Z,1005.42
2023-09-13T00:36:01.611Z,1005.42
2023-09-13T00:36:34.190Z,1005.42
2023-09-13T00:37:05.610Z,1005.21
2023-09-13T00:37:36.151Z,1005.42
2023-09-13T00:37:54.089Z,1005.42
2023-09-13T00:38:25.292Z,1005.42
2023-09-13T00:38:42.359Z,1005.21
2023-09-13T00:39:14.112Z,1005.21
2023-09-13T00:39:35.635Z,1005.52
2023-09-13T00:40:01.596Z,1005.52
2023-09-13T00:40:34.125Z,1005.52
2023-09-13T00:41:05.223Z,1005.21
2023-09-13T00:41:35.206Z,1005.21
2023-09-13T00:41:54.175Z,1005.21
2023-09-13T00:42:25.275Z,1005.21
2023-09-13T00:42:42.482Z,1005.32
2023-09-13T00:43:14.122Z,1005.32
2023-09-13T00:43:35.210Z,1005.42
2023-09-13T00:44:01.665Z,1005.42
2023-09-13T00:44:34.521Z,1005.42
2023-09-13T00:45:05.581Z,1005.52
2023-09-13T00:45:35.620Z,1005.32
2023-09-13T00:45:54.364Z,1005.32
2023-09-13T00:46:25.398Z,1005.32
2023-09-13T00:46:42.724Z,1005.32
2023-09-13T00:47:14.096Z,1005.32
2023-09-13T00:47:35.315Z,1005.32
2023-09-13T00:48:01.666Z,1005.32
2023-09-13T00:48:34.344Z,1005.32
2023-09-13T00:49:05.237Z,1005.11
2023-09-13T00:49:35.191Z,1005.52
2023-09-13T00:49:54.142Z,1005.52
2023-09-13T00:50:27.066Z,1005.52
2023-09-13T00:50:52.703Z,1005.21
2023-09-13T00:51:14.068Z,1005.21
2023-09-13T00:51:35.297Z,1005.01
2023-09-13T00:52:01.506Z,1005.01
2023-09-13T00:52:34.694Z,1005.01
2023-09-13T00:53:05.185Z,1005.42
2023-09-13T00:53:35.281Z,1005.32
2023-09-13T00:53:54.015Z,1005.32
2023-09-13T00:54:25.431Z,1005.32
2023-09-13T00:54:42.391Z,1005.11
2023-09-13T00:55:14.417Z,1005.11
2023-09-13T00:55:35.240Z,1005.42
2023-09-13T00:56:01.420Z,1005.42
2023-09-13T00:56:34.289Z,1005.42
2023-09-13T00:57:05.167Z,1005.32
2023-09-13T00:57:35.240Z,1005.11
2023-09-13T00:57:54.011Z,1005.11
2023-09-13T00:58:25.335Z,1005.11
2023-09-13T00:58:42.379Z,1005.32
2023-09-13T00:59:14.077Z,1005.32
2023-09-13T00:59:35.284Z,1005.11
2023-09-13T01:00:01.861Z,1005.11
2023-09-13T01:00:38.142Z,1005.11
2023-09-13T01:01:05.281Z,1005.21
2023-09-13T01:01:58.719Z,1005.21
2023-09-13T01:02:25.331Z,1005.21
2023-09-13T01:02:42.468Z,1005.11
2023-09-13T01:03:13.275Z,1005.11
2023-09-13T01:03:36.157Z,1005.42
2023-09-13T01:04:01.538Z,1005.42
2023-09-13T01:04:34.195Z,1005.42
2023-09-13T01:05:05.316Z,1005.42
2023-09-13T01:05:36.169Z,1005.32
2023-09-13T01:05:54.259Z,1005.32
2023-09-13T01:06:25.390Z,1005.32
2023-09-13T01:06:42.383Z,1005.32
2023-09-13T01:07:14.121Z,1005.32
2023-09-13T01:07:35.211Z,1005.32
2023-09-13T01:08:01.430Z,1005.32
2023-09-13T01:08:34.118Z,1005.32
2023-09-13T01:09:05.347Z,1005.32
2023-09-13T01:09:35.281Z,1005.42
2023-09-13T01:09:54.056Z,1005.42
2023-09-13T01:10:25.407Z,1005.42
2023-09-13T01:10:42.354Z,1005.32
2023-09-13T01:11:14.081Z,1005.32
2023-09-13T01:11:35.666Z,1005.62
2023-09-13T01:12:01.266Z,1005.62
2023-09-13T01:12:34.096Z,1005.62
2023-09-13T01:13:05.342Z,1005.21
2023-09-13T01:13:35.188Z,1005.32
2023-09-13T01:13:54.051Z,1005.32
2023-09-13T01:14:25.245Z,1005.32
2023-09-13T01:14:42.364Z,1005.62
2023-09-13T01:15:14.332Z,1005.62
2023-09-13T01:15:35.296Z,1005.32
2023-09-13T01:16:01.506Z,1005.32
2023-09-13T01:16:37.113Z,1005.32
2023-09-13T01:17:05.213Z,1005.42
2023-09-13T01:17:35.351Z,1005.21
2023-09-13T01:17:53.226Z,1005.21
2023-09-13T01:18:25.263Z,1005.21
2023-09-13T01:18:42.364Z,1005.52
2023-09-13T01:19:14.097Z,1005.52
2023-09-13T01:19:35.611Z,1005.21
2023-09-13T01:20:01.535Z,1005.21
2023-09-13T01:20:34.197Z,1005.21
2023-09-13T01:21:05.175Z,1005.32
2023-09-13T01:21:35.215Z,1005.32
2023-09-13T01:21:54.193Z,1005.32
2023-09-13T01:22:25.357Z,1005.32
2023-09-13T01:22:42.329Z,1005.32
2023-09-13T01:23:14.029Z,1005.32
2023-09-13T01:23:35.195Z,1005.32
2023-09-13T01:24:01.372Z,1005.32
2023-09-13T01:24:34.372Z,1005.32
2023-09-13T01:25:05.438Z,1005.32
2023-09-13T01:25:35.226Z,1005.32
2023-09-13T01:25:54.360Z,1005.32
2023-09-13T01:26:25.358Z,1005.32
2023-09-13T01:26:42.342Z,1005.62
2023-09-13T01:27:13.907Z,1005.62
2023-09-13T01:27:35.206Z,1005.62
2023-09-13T01:28:01.385Z,1005.62
2023-09-13T01:28:33.908Z,1005.62
2023-09-13T01:29:05.167Z,1005.32
2023-09-13T01:29:35.335Z,1005.52
2023-09-13T01:29:53.986Z,1005.52
2023-09-13T01:30:25.483Z,1005.52
2023-09-13T01:30:42.375Z,1005.42
2023-09-13T01:31:14.179Z,1005.42
2023-09-13T01:31:36.056Z,1005.32
2023-09-13T01:32:01.283Z,1005.32
2023-09-13T01:32:34.080Z,1005.32
2023-09-13T01:33:05.207Z,1005.32
2023-09-13T01:33:35.393Z,1005.62
2023-09-13T01:33:54.099Z,1005.62
2023-09-13T01:34:25.402Z,1005.62
2023-09-13T01:34:42.334Z,1005.52
2023-09-13T01:35:14.213Z,1005.52
2023-09-13T01:35:35.223Z,1005.52
2023-09-13T01:36:01.385Z,1005.52
2023-09-13T01:36:34.214Z,1005.52
2023-09-13T01:37:05.208Z,1005.52
2023-09-13T01:37:35.175Z,1005.42
2023-09-13T01:37:54.018Z,1005.42
2023-09-13T01:38:25.363Z,1005.42
2023-09-13T01:38:42.322Z,1005.42
2023-09-13T01:39:14.130Z,1005.42
2023-09-13T01:39:35.932Z,1005.52
2023-09-13T01:40:01.716Z,1005.52
2023-09-13T01:40:34.052Z,1005.52
2023-09-13T01:41:05.201Z,1005.72
2023-09-13T01:41:35.197Z,1005.62
2023-09-13T01:41:53.907Z,1005.62
2023-09-13T01:42:25.171Z,1005.62
2023-09-13T01:42:42.345Z,1005.62
2023-09-13T01:43:14.182Z,1005.62
2023-09-13T01:43:35.349Z,1005.72
2023-09-13T01:44:01.319Z,1005.72
2023-09-13T01:44:34.067Z,1005.72
2023-09-13T01:45:05.524Z,1005.62
2023-09-13T01:45:35.261Z,1005.62
2023-09-13T01:45:54.290Z,1005.62
2023-09-13T01:46:25.422Z,1005.62
2023-09-13T01:46:42.417Z,1005.42
2023-09-13T01:47:13.947Z,1005.42
2023-09-13T01:47:35.292Z,1005.72
2023-09-13T01:48:01.526Z,1005.72
2023-09-13T01:48:34.097Z,1005.72
2023-09-13T01:49:05.242Z,1005.62
2023-09-13T01:49:35.242Z,1005.52
2023-09-13T01:49:53.929Z,1005.52
2023-09-13T01:50:25.645Z,1005.52
2023-09-13T01:50:42.424Z,1005.82
2023-09-13T01:51:13.316Z,1005.82
2023-09-13T01:51:35.261Z,1005.62
2023-09-13T01:52:02.074Z,1005.62
2023-09-13T01:52:33.193Z,1005.62
2023-09-13T01:53:05.182Z,1005.62
2023-09-13T01:53:35.196Z,1005.72
2023-09-13T01:53:53.215Z,1005.72
2023-09-13T01:54:26.101Z,1005.72
2023-09-13T01:54:43.430Z,1005.62
2023-09-13T01:55:13.492Z,1005.62
2023-09-13T01:55:35.551Z,1005.62
2023-09-13T01:56:02.065Z,1005.62
2023-09-13T01:56:33.181Z,1005.62
2023-09-13T01:57:05.176Z,1005.62
2023-09-13T01:57:35.431Z,1005.62
2023-09-13T01:57:53.708Z,1005.62
2023-09-13T01:58:26.891Z,1005.62
2023-09-13T01:58:43.160Z,1005.82
2023-09-13T01:59:13.225Z,1005.82
2023-09-13T01:59:35.254Z,1005.82
2023-09-13T02:00:02.532Z,1005.82
2023-09-13T02:00:33.165Z,1005.82
2023-09-13T02:01:05.263Z,1005.42
2023-09-13T02:01:35.316Z,1005.72
2023-09-13T02:01:53.182Z,1005.72
2023-09-13T02:02:26.100Z,1005.72
2023-09-13T02:02:43.358Z,1005.42
2023-09-13T02:03:13.198Z,1005.42
2023-09-13T02:03:35.214Z,1005.52
2023-09-13T02:04:01.979Z,1005.52
2023-09-13T02:04:33.219Z,1005.52
2023-09-13T02:05:05.372Z,1005.82
2023-09-13T02:05:35.245Z,1005.72
2023-09-13T02:05:53.322Z,1005.72
2023-09-13T02:06:26.216Z,1005.72
2023-09-13T02:06:43.102Z,1005.72
2023-09-13T02:07:13.189Z,1005.72
2023-09-13T02:07:35.298Z,1005.62
2023-09-13T02:08:01.997Z,1005.62
2023-09-13T02:08:33.116Z,1005.62
2023-09-13T02:09:05.848Z,1005.72
2023-09-13T02:09:35.304Z,1005.72
2023-09-13T02:09:53.297Z,1005.72
2023-09-13T02:10:26.383Z,1005.72
2023-09-13T02:10:43.170Z,1005.72
2023-09-13T02:11:13.244Z,1005.72
2023-09-13T02:11:35.208Z,1005.93
2023-09-13T02:12:02.018Z,1005.93
2023-09-13T02:12:33.228Z,1005.93
2023-09-13T02:13:05.261Z,1005.72
2023-09-13T02:13:35.345Z,1005.62
2023-09-13T02:13:53.151Z,1005.62
2023-09-13T02:14:25.991Z,1005.62
2023-09-13T02:14:43.008Z,1005.62
2023-09-13T02:15:13.459Z,1005.62
2023-09-13T02:15:35.260Z,1005.62
2023-09-13T02:16:02.047Z,1005.62
2023-09-13T02:16:33.265Z,1005.62
2023-09-13T02:17:05.256Z,1005.62
2023-09-13T02:17:35.263Z,1005.72
2023-09-13T02:17:53.376Z,1005.72
2023-09-13T02:18:25.896Z,1005.72
2023-09-13T02:18:43.042Z,1005.52
2023-09-13T02:19:13.228Z,1005.52
2023-09-13T02:19:35.210Z,1005.72
2023-09-13T02:20:02.201Z,1005.72
2023-09-13T02:20:33.309Z,1005.72
2023-09-13T02:21:05.171Z,1005.72
2023-09-13T02:21:35.579Z,1005.42
2023-09-13T02:21:53.180Z,1005.42
2023-09-13T02:22:26.103Z,1005.42
2023-09-13T02:22:43.116Z,1005.72
2023-09-13T02:23:13.178Z,1005.72
2023-09-13T02:23:35.706Z,1005.82
2023-09-13T02:24:07.361Z,1005.82
2023-09-13T02:24:33.168Z,1005.82
2023-09-13T02:25:05.378Z,1005.72
2023-09-13T02:25:36.487Z,1005.82
2023-09-13T02:26:09.219Z,1005.82
2023-09-13T02:26:35.201Z,1005.72
2023-09-13T02:26:58.033Z,1005.72
2023-09-13T02:27:29.191Z,1005.72
2023-09-13T02:28:01.427Z,1005.82
2023-09-13T02:28:33.163Z,1005.82
2023-09-13T02:29:05.186Z,1005.62
2023-09-13T02:29:35.224Z,1005.62
2023-09-13T02:29:53.147Z,1005.62
2023-09-13T02:30:26.347Z,1005.62
2023-09-13T02:30:43.865Z,1005.62
2023-09-13T02:31:13.310Z,1005.62
2023-09-13T02:31:35.293Z,1005.72
2023-09-13T02:32:01.364Z,1005.72
2023-09-13T02:32:33.180Z,1005.72
2023-09-13T02:33:05.400Z,1005.62
2023-09-13T02:33:35.259Z,1006.03
2023-09-13T02:33:53.239Z,1006.03
2023-09-13T02:34:25.910Z,1006.03
2023-09-13T02:34:43.044Z,1005.72
2023-09-13T02:35:13.393Z,1005.72
2023-09-13T02:35:35.632Z,1005.62
2023-09-13T02:36:02.397Z,1005.62
2023-09-13T02:36:33.421Z,1005.62
2023-09-13T02:37:05.246Z,1006.03
2023-09-13T02:37:35.353Z,1005.93
2023-09-13T02:37:53.176Z,1005.93
2023-09-13T02:38:26.112Z,1005.93
2023-09-13T02:38:43.088Z,1005.82
2023-09-13T02:39:13.234Z,1005.82
2023-09-13T02:39:35.263Z,1005.93
2023-09-13T02:40:02.251Z,1005.93
2023-09-13T02:40:33.136Z,1005.93
2023-09-13T02:41:05.124Z,1005.82
2023-09-13T02:41:35.239Z,1005.93
2023-09-13T02:41:53.201Z,1005.93
2023-09-13T02:42:25.942Z,1005.93
2023-09-13T02:42:43.039Z,1005.93
2023-09-13T02:43:13.210Z,1005.93
2023-09-13T02:43:35.604Z,1005.93
2023-09-13T02:44:02.203Z,1005.93
2023-09-13T02:44:33.678Z,1005.93
2023-09-13T02:45:05.706Z,1005.82
2023-09-13T02:45:35.232Z,1005.93
2023-09-13T02:45:53.392Z,1005.93
2023-09-13T02:46:26.190Z,1005.93
2023-09-13T02:46:43.131Z,1006.03
2023-09-13T02:47:13.253Z,1006.03
2023-09-13T02:47:35.922Z,1005.82
2023-09-13T02:48:02.152Z,1005.82
2023-09-13T02:48:33.262Z,1005.82
2023-09-13T02:49:05.132Z,1005.93
2023-09-13T02:49:35.302Z,1006.03
2023-09-13T02:49:53.163Z,1006.03
2023-09-13T02:50:26.399Z,1006.03
2023-09-13T02:50:43.132Z,1006.03
2023-09-13T02:51:13.185Z,1006.03
2023-09-13T02:51:35.211Z,1005.93
2023-09-13T02:52:01.313Z,1005.93
2023-09-13T02:52:34.078Z,1005.93
2023-09-13T02:53:05.276Z,1006.03
2023-09-13T02:53:35.293Z,1006.23
2023-09-13T02:53:54.064Z,1006.23
2023-09-13T02:54:25.246Z,1006.23
2023-09-13T02:54:42.346Z,1006.03
2023-09-13T02:55:14.357Z,1006.03
2023-09-13T02:55:38.735Z,1006.13
2023-09-13T02:56:01.344Z,1006.13
2023-09-13T02:56:34.018Z,1006.13
2023-09-13T02:57:05.220Z,1005.93
2023-09-13T02:57:35.314Z,1005.93
2023-09-13T02:57:54.191Z,1005.93
2023-09-13T02:58:25.250Z,1005.93
2023-09-13T02:58:42.408Z,1005.93
2023-09-13T02:59:14.077Z,1005.93
2023-09-13T02:59:35.543Z,1005.93
2023-09-13T03:00:01.845Z,1005.93
2023-09-13T03:00:34.033Z,1005.93
2023-09-13T03:01:05.528Z,1005.93
2023-09-13T03:01:35.823Z,1006.03
2023-09-13T03:01:54.108Z,1006.03
2023-09-13T03:02:25.227Z,1006.03
2023-09-13T03:02:42.384Z,1005.93
2023-09-13T03:03:14.082Z,1005.93
2023-09-13T03:03:35.279Z,1006.23
2023-09-13T03:04:01.278Z,1006.23
2023-09-13T03:04:34.017Z,1006.23
2023-09-13T03:05:05.344Z,1006.13
2023-09-13T03:05:35.900Z,1006.03
2023-09-13T03:05:54.213Z,1006.03
2023-09-13T03:06:25.202Z,1006.03
2023-09-13T03:06:42.322Z,1006.03
2023-09-13T03:07:14.017Z,1006.03
2023-09-13T03:07:35.599Z,1006.03
2023-09-13T03:08:01.259Z,1006.03
2023-09-13T03:08:33.962Z,1006.03
2023-09-13T03:09:05.248Z,1006.23
2023-09-13T03:09:35.255Z,1006.23
2023-09-13T03:09:53.843Z,1006.23
2023-09-13T03:10:25.439Z,1006.23
2023-09-13T03:10:42.370Z,1006.13
2023-09-13T03:11:14.140Z,1006.13
2023-09-13T03:11:35.237Z,1006.23
2023-09-13T03:12:01.188Z,1006.23
2023-09-13T03:12:34.146Z,1006.23
2023-09-13T03:13:05.198Z,1005.93
2023-09-13T03:13:35.252Z,1006.13
2023-09-13T03:13:53.850Z,1006.13
2023-09-13T03:14:25.176Z,1006.13
2023-09-13T03:14:42.342Z,1006.13
2023-09-13T03:15:14.423Z,1006.13
2023-09-13T03:15:35.259Z,1006.13
2023-09-13T03:16:01.578Z,1006.13
2023-09-13T03:16:34.533Z,1006.13
2023-09-13T03:17:05.220Z,1006.33
2023-09-13T03:17:35.319Z,1006.43
2023-09-13T03:17:53.980Z,1006.43
2023-09-13T03:18:25.504Z,1006.43
2023-09-13T03:18:42.600Z,1006.23
2023-09-13T03:19:14.111Z,1006.23
2023-09-13T03:19:35.261Z,1006.33
2023-09-13T03:20:01.550Z,1006.33
2023-09-13T03:20:33.108Z,1006.33
2023-09-13T03:21:05.163Z,1006.23
2023-09-13T03:21:36.329Z,1006.43
2023-09-13T03:21:53.224Z,1006.43
2023-09-13T03:22:25.432Z,1006.43
2023-09-13T03:22:42.404Z,1006.33
2023-09-13T03:23:13.970Z,1006.33
2023-09-13T03:23:35.217Z,1006.43
2023-09-13T03:24:01.219Z,1006.43
2023-09-13T03:24:33.951Z,1006.43
2023-09-13T03:25:05.292Z,1006.43
2023-09-13T03:25:35.268Z,1006.53
2023-09-13T03:25:54.160Z,1006.53
2023-09-13T03:26:25.159Z,1006.53
2023-09-13T03:26:42.258Z,1006.43
2023-09-13T03:27:13.905Z,1006.43
2023-09-13T03:27:35.402Z,1006.13
2023-09-13T03:28:01.212Z,1006.13
2023-09-13T03:28:33.908Z,1006.13
2023-09-13T03:29:05.172Z,1006.43
2023-09-13T03:29:35.307Z,1006.33
2023-09-13T03:29:54.061Z,1006.33
2023-09-13T03:30:25.378Z,1006.33
2023-09-13T03:30:42.274Z,1006.33
2023-09-13T03:31:14.030Z,1006.33
2023-09-13T03:31:35.339Z,1006.43
2023-09-13T03:32:01.285Z,1006.43
2023-09-13T03:32:34.489Z,1006.43
2023-09-13T03:33:05.252Z,1006.13
2023-09-13T03:33:35.195Z,1006.33
2023-09-13T03:33:54.116Z,1006.33
2023-09-13T03:34:25.215Z,1006.33
2023-09-13T03:34:42.259Z,1006.33
2023-09-13T03:35:14.112Z,1006.33
2023-09-13T03:35:35.277Z,1006.23
2023-09-13T03:36:01.228Z,1006.23
2023-09-13T03:36:33.848Z,1006.23
2023-09-13T03:37:05.193Z,1006.53
2023-09-13T03:37:35.834Z,1006.33
2023-09-13T03:37:53.794Z,1006.33
2023-09-13T03:38:25.160Z,1006.33
2023-09-13T03:38:42.392Z,1006.13
2023-09-13T03:39:13.925Z,1006.13
2023-09-13T03:39:35.238Z,1006.43
2023-09-13T03:40:01.401Z,1006.43
2023-09-13T03:40:33.144Z,1006.43
2023-09-13T03:41:05.166Z,1006.33
2023-09-13T03:41:35.247Z,1006.13
2023-09-13T03:41:53.391Z,1006.13
2023-09-13T03:42:25.193Z,1006.13
2023-09-13T03:42:42.995Z,1006.64
2023-09-13T03:43:13.186Z,1006.64
2023-09-13T03:43:35.210Z,1006.33
2023-09-13T03:44:02.270Z,1006.33
2023-09-13T03:44:33.081Z,1006.33
2023-09-13T03:45:06.387Z,1006.33
2023-09-13T03:45:35.307Z,1006.43
2023-09-13T03:45:53.499Z,1006.43
2023-09-13T03:46:26.070Z,1006.43
2023-09-13T03:46:43.145Z,1006.43
2023-09-13T03:47:13.216Z,1006.43
2023-09-13T03:47:35.363Z,1006.33
2023-09-13T03:48:02.442Z,1006.33
2023-09-13T03:48:33.244Z,1006.33
2023-09-13T03:49:05.243Z,1006.33
2023-09-13T03:49:35.320Z,1006.33
2023-09-13T03:49:53.102Z,1006.33
2023-09-13T03:50:26.175Z,1006.33
2023-09-13T03:50:43.479Z,1006.33
2023-09-13T03:51:13.144Z,1006.33
2023-09-13T03:51:35.663Z,1006.53
2023-09-13T03:52:02.098Z,1006.53
2023-09-13T03:52:33.065Z,1006.53
2023-09-13T03:53:05.159Z,1006.43
2023-09-13T03:53:35.785Z,1006.43
2023-09-13T03:53:53.061Z,1006.43
2023-09-13T03:54:25.829Z,1006.43
2023-09-13T03:54:43.004Z,1006.23
2023-09-13T03:55:13.319Z,1006.23
2023-09-13T03:55:35.338Z,1006.43
2023-09-13T03:56:01.959Z,1006.43
2023-09-13T03:56:33.085Z,1006.43
2023-09-13T03:57:05.151Z,1006.33
2023-09-13T03:57:35.273Z,1006.33
2023-09-13T03:57:53.148Z,1006.33
2023-09-13T03:58:25.852Z,1006.33
2023-09-13T03:58:42.970Z,1006.33
2023-09-13T03:59:13.109Z,1006.33
2023-09-13T03:59:35.239Z,1006.43
2023-09-13T04:00:02.976Z,1006.43
2023-09-13T04:00:33.200Z,1006.43
2023-09-13T04:01:05.891Z,1006.43
2023-09-13T04:01:35.882Z,1006.33
2023-09-13T04:01:53.199Z,1006.33
2023-09-13T04:02:26.081Z,1006.33
2023-09-13T04:02:43.042Z,1006.33
2023-09-13T04:03:13.188Z,1006.33
2023-09-13T04:03:35.317Z,1006.33
2023-09-13T04:04:02.083Z,1006.33
2023-09-13T04:04:33.125Z,1006.33
2023-09-13T04:05:05.506Z,1006.53
2023-09-13T04:05:35.897Z,1006.43
2023-09-13T04:05:53.379Z,1006.43
2023-09-13T04:06:26.373Z,1006.43
2023-09-13T04:06:43.131Z,1006.33
2023-09-13T04:07:13.151Z,1006.33
2023-09-13T04:07:35.436Z,1006.43
2023-09-13T04:08:02.050Z,1006.43
2023-09-13T04:08:33.054Z,1006.43
2023-09-13T04:09:05.173Z,1006.23
2023-09-13T04:09:35.638Z,1006.43
2023-09-13T04:09:53.073Z,1006.43
2023-09-13T04:10:26.331Z,1006.43
2023-09-13T04:10:43.176Z,1006.43
2023-09-13T04:11:13.150Z,1006.43
2023-09-13T04:11:35.254Z,1006.43
2023-09-13T04:12:01.942Z,1006.43
2023-09-13T04:12:36.321Z,1006.43
2023-09-13T04:13:05.184Z,1006.23
2023-09-13T04:13:35.685Z,1006.23
2023-09-13T04:13:53.148Z,1006.23
2023-09-13T04:14:25.822Z,1006.23
2023-09-13T04:14:42.979Z,1006.23
2023-09-13T04:15:13.310Z,1006.23
2023-09-13T04:15:35.227Z,1006.33
2023-09-13T04:16:02.126Z,1006.33
2023-09-13T04:16:33.189Z,1006.33
2023-09-13T04:17:05.873Z,1006.23
2023-09-13T04:17:35.278Z,1006.23
2023-09-13T04:17:53.328Z,1006.23
2023-09-13T04:18:25.899Z,1006.23
2023-09-13T04:18:42.991Z,1006.43
2023-09-13T04:19:13.277Z,1006.43
2023-09-13T04:19:35.300Z,1006.33
2023-09-13T04:20:02.135Z,1006.33
2023-09-13T04:20:34.758Z,1006.33
2023-09-13T04:21:05.170Z,1006.33
2023-09-13T04:21:35.386Z,1006.33
2023-09-13T04:21:53.158Z,1006.33
2023-09-13T04:22:26.900Z,1006.33
2023-09-13T04:22:43.047Z,1006.13
2023-09-13T04:23:13.192Z,1006.13
2023-09-13T04:23:35.319Z,1006.53
2023-09-13T04:24:02.013Z,1006.53
2023-09-13T04:24:33.085Z,1006.53
2023-09-13T04:25:05.346Z,1006.43
2023-09-13T04:25:36.280Z,1006.33
2023-09-13T04:26:09.087Z,1006.33
2023-09-13T04:26:35.552Z,1006.23
2023-09-13T04:26:57.279Z,1006.23
2023-09-13T04:27:29.928Z,1006.23
2023-09-13T04:28:01.229Z,1006.43
2023-09-13T04:28:33.285Z,1006.43
2023-09-13T04:29:05.143Z,1006.23
2023-09-13T04:29:35.915Z,1006.23
2023-09-13T04:30:10.286Z,1006.23
2023-09-13T04:30:35.602Z,1006.33
2023-09-13T04:30:57.874Z,1006.33
2023-09-13T04:31:29.893Z,1006.33
2023-09-13T04:32:01.195Z,1006.13
2023-09-13T04:32:33.104Z,1006.13
2023-09-13T04:33:05.262Z,1006.33
2023-09-13T04:33:35.309Z,1006.33
2023-09-13T04:33:54.133Z,1006.33
2023-09-13T04:34:25.392Z,1006.33
2023-09-13T04:34:42.537Z,1006.33
2023-09-13T04:35:14.236Z,1006.33
2023-09-13T04:35:35.290Z,1006.33
2023-09-13T04:36:01.125Z,1006.33
2023-09-13T04:36:33.855Z,1006.33
2023-09-13T04:37:05.268Z,1006.03
2023-09-13T04:37:38.132Z,1006.13
2023-09-13T04:37:53.205Z,1006.13
2023-09-13T04:38:25.125Z,1006.13
2023-09-13T04:38:42.297Z,1006.23
2023-09-13T04:39:13.942Z,1006.23
2023-09-13T04:39:35.260Z,1006.23
2023-09-13T04:40:01.417Z,1006.23
2023-09-13T04:40:33.087Z,1006.23
2023-09-13T04:41:05.124Z,1006.53
2023-09-13T04:41:35.388Z,1006.33
2023-09-13T04:41:54.558Z,1006.33
2023-09-13T04:42:25.181Z,1006.33
2023-09-13T04:42:42.336Z,1006.43
2023-09-13T04:43:13.794Z,1006.43
2023-09-13T04:43:35.300Z,1006.43
2023-09-13T04:44:03.196Z,1006.43
2023-09-13T04:44:33.937Z,1006.43
2023-09-13T04:45:05.313Z,1006.33
2023-09-13T04:45:35.360Z,1006.03
2023-09-13T04:45:54.284Z,1006.03
2023-09-13T04:46:25.952Z,1006.03
2023-09-13T04:46:42.522Z,1006.33
2023-09-13T04:47:13.963Z,1006.33
2023-09-13T04:47:35.982Z,1006.33
2023-09-13T04:48:01.655Z,1006.33
2023-09-13T04:48:34.034Z,1006.33
2023-09-13T04:49:05.231Z,1006.33
2023-09-13T04:49:35.402Z,1006.33
2023-09-13T04:49:53.962Z,1006.33
2023-09-13T04:50:25.301Z,1006.33
2023-09-13T04:50:42.368Z,1006.43
2023-09-13T04:51:14.066Z,1006.43
2023-09-13T04:51:36.066Z,1006.43
2023-09-13T04:52:01.208Z,1006.43
2023-09-13T04:52:33.863Z,1006.43
2023-09-13T04:53:05.345Z,1006.53
2023-09-13T04:53:35.327Z,1006.43
2023-09-13T04:53:53.910Z,1006.43
2023-09-13T04:54:25.094Z,1006.43
2023-09-13T04:54:42.262Z,1006.33
2023-09-13T04:55:14.376Z,1006.33
2023-09-13T04:55:35.345Z,1006.43
2023-09-13T04:56:01.098Z,1006.43
2023-09-13T04:56:33.889Z,1006.43
2023-09-13T04:57:05.291Z,1006.43
2023-09-13T04:57:35.352Z,1006.53
2023-09-13T04:57:53.890Z,1006.53
2023-09-13T04:58:25.189Z,1006.53
2023-09-13T04:58:42.313Z,1006.43
2023-09-13T04:59:13.046Z,1006.43
2023-09-13T04:59:35.809Z,1006.43
2023-09-13T05:00:02.546Z,1006.43
2023-09-13T05:00:33.169Z,1006.43
2023-09-13T05:01:05.155Z,1006.43
2023-09-13T05:01:35.744Z,1006.64
2023-09-13T05:01:53.135Z,1006.64
2023-09-13T05:02:25.987Z,1006.64
2023-09-13T05:02:43.636Z,1006.43
2023-09-13T05:03:13.257Z,1006.43
2023-09-13T05:03:35.468Z,1006.43
2023-09-13T05:04:01.408Z,1006.43
2023-09-13T05:04:33.082Z,1006.43
2023-09-13T05:05:06.037Z,1006.53
2023-09-13T05:05:35.310Z,1006.53
2023-09-13T05:05:53.253Z,1006.53
2023-09-13T05:06:26.083Z,1006.53
2023-09-13T05:06:43.680Z,1006.84
2023-09-13T05:07:13.121Z,1006.84
2023-09-13T05:07:35.254Z,1006.74
2023-09-13T05:08:01.218Z,1006.74
2023-09-13T05:08:33.009Z,1006.74
2023-09-13T05:09:05.976Z,1006.53
2023-09-13T05:09:35.484Z,1006.74
2023-09-13T05:09:53.200Z,1006.74
2023-09-13T05:10:26.196Z,1006.74
2023-09-13T05:10:44.797Z,1006.53
2023-09-13T05:11:13.284Z,1006.53
2023-09-13T05:11:35.636Z,1006.53
2023-09-13T05:12:01.280Z,1006.53
2023-09-13T05:12:33.809Z,1006.53
2023-09-13T05:13:06.519Z,1006.74
2023-09-13T05:13:35.504Z,1006.53
2023-09-13T05:13:53.066Z,1006.53
2023-09-13T05:14:26.709Z,1006.53
2023-09-13T05:14:43.918Z,1006.64
2023-09-13T05:15:13.504Z,1006.64
2023-09-13T05:15:35.734Z,1006.74
2023-09-13T05:16:01.419Z,1006.74
2023-09-13T05:16:33.338Z,1006.74
2023-09-13T05:17:06.599Z,1006.74
2023-09-13T05:17:35.733Z,1006.53
2023-09-13T05:17:53.299Z,1006.53
2023-09-13T05:18:25.178Z,1006.53
2023-09-13T05:18:42.396Z,1006.74
2023-09-13T05:19:14.015Z,1006.74
2023-09-13T05:19:35.461Z,1006.53
2023-09-13T05:20:01.649Z,1006.53
2023-09-13T05:20:33.243Z,1006.53
2023-09-13T05:21:05.326Z,1006.43
2023-09-13T05:21:36.204Z,1006.43
2023-09-13T05:21:53.294Z,1006.43
2023-09-13T05:22:26.320Z,1006.43
2023-09-13T05:22:43.020Z,1006.64
2023-09-13T05:23:13.228Z,1006.64
2023-09-13T05:23:35.395Z,1006.43
2023-09-13T05:24:02.055Z,1006.43